Otsego, Minnesota
Current Conditions -  °F | °C
As of 2:24 AM on Monday 22 Dec 2014 (Local Time) from KMIC Reporting Station
Haze Haze  
Wind Chill: 31°   Ceiling: 500
Heat Index: 39°   Visibility: 4mi
Dew Point: 37°   Wind: 13mph
Humidity: 93%   Direction: 150°SSE
Pressure: 29.68"   Gusts: NA
Location:  45.1964°N, 93.4758°W
Report Text: KMIC 220824Z AUTO 15011KT 4SM BR OVC005 04/03 A2968 RMK AO2 RAB0756E05 P0000 T00390028
Loading
Personal Weather Stations






























Interactive Weather Map New forecast layout! Learn more

10-Day Weather Forecast

Advertisements
Track Severe Weather on mobile